createdAt,value
2019-05-06T00:00:34.103Z,10.70
2019-05-06T00:05:35.415Z,6.95
2019-05-06T00:08:05.747Z,10.48
2019-05-06T00:10:37.163Z,10.58
2019-05-06T00:13:07.584Z,11.78
2019-05-06T00:15:38.161Z,10.93
2019-05-06T00:18:08.483Z,9.33
2019-05-06T00:20:38.746Z,9.15
2019-05-06T00:37:24.111Z,10.60
2019-05-06T00:39:58.706Z,10.90
2019-05-06T00:42:31.318Z,11.00
2019-05-06T00:45:01.782Z,10.38
2019-05-06T00:47:34.042Z,10.70
2019-05-06T00:50:05.865Z,16.42
2019-05-06T00:52:37.214Z,12.20
2019-05-06T00:55:08.098Z,13.85
2019-05-06T00:57:44.366Z,6.92
2019-05-06T01:00:18.400Z,15.77
2019-05-06T01:02:48.833Z,12.53
2019-05-06T01:05:19.330Z,13.53
2019-05-06T01:07:49.748Z,8.38
2019-05-06T01:10:20.640Z,10.23
2019-05-06T01:12:54.408Z,10.13
2019-05-06T01:15:26.592Z,11.73
2019-05-06T01:17:57.048Z,12.43
2019-05-06T01:20:29.153Z,10.28
2019-05-06T01:22:59.488Z,7.87
2019-05-06T01:25:31.306Z,13.30
2019-05-06T01:28:04.249Z,7.25
2019-05-06T01:30:35.830Z,12.60
2019-05-06T01:33:06.962Z,10.82
2019-05-06T01:35:37.295Z,8.33
2019-05-06T01:38:21.335Z,7.13
2019-05-06T01:40:54.690Z,10.25
2019-05-06T01:43:29.488Z,5.83
2019-05-06T01:45:59.941Z,11.67
2019-05-06T01:48:48.182Z,8.07
2019-05-06T01:51:20.728Z,5.90
2019-05-06T01:53:54.220Z,7.83
2019-05-06T01:56:24.240Z,12.47
2019-05-06T01:58:54.964Z,9.35
2019-05-06T02:01:25.326Z,12.20
2019-05-06T02:03:55.821Z,6.87
2019-05-06T02:06:26.453Z,7.53
2019-05-06T02:08:56.851Z,7.80
2019-05-06T02:11:27.597Z,10.35
2019-05-06T02:13:57.982Z,5.90
2019-05-06T02:16:28.377Z,7.62
2019-05-06T02:18:58.722Z,9.57
2019-05-06T02:21:31.017Z,11.03
2019-05-06T02:24:14.629Z,5.58
2019-05-06T02:26:44.984Z,7.37
2019-05-06T02:29:25.641Z,9.50
2019-05-06T02:32:17.134Z,13.15
2019-05-06T02:34:54.595Z,11.63
2019-05-06T02:37:27.072Z,9.23
2019-05-06T02:39:57.445Z,11.10
2019-05-06T02:42:27.796Z,12.30
2019-05-06T02:44:58.171Z,12.65
2019-05-06T02:47:30.202Z,11.60
2019-05-06T02:50:17.080Z,11.80
2019-05-06T02:52:47.671Z,12.37
2019-05-06T02:55:19.129Z,10.62
2019-05-06T02:57:49.839Z,10.37
2019-05-06T03:00:23.690Z,12.53
2019-05-06T03:02:54.116Z,12.50
2019-05-06T03:05:24.848Z,15.95
2019-05-06T03:07:57.740Z,13.58
2019-05-06T03:10:27.659Z,12.30
2019-05-06T03:12:58.020Z,10.50
2019-05-06T03:15:28.370Z,13.50
2019-05-06T03:17:58.719Z,14.73
2019-05-06T03:20:53.537Z,12.10
2019-05-06T03:23:25.580Z,16.35
2019-05-06T03:25:55.947Z,12.25
2019-05-06T03:28:26.561Z,9.40
2019-05-06T03:30:57.286Z,12.60
2019-05-06T03:33:45.729Z,13.40
2019-05-06T03:36:09.409Z,9.53
2019-05-06T03:38:33.443Z,15.60
2019-05-06T03:41:04.370Z,12.35
2019-05-06T03:43:34.708Z,11.30
2019-05-06T03:46:15.722Z,12.65
2019-05-06T03:48:47.707Z,13.25
2019-05-06T03:51:18.102Z,15.03
2019-05-06T03:53:48.845Z,15.58
2019-05-06T03:56:23.878Z,11.00
2019-05-06T03:58:56.881Z,12.20
2019-05-06T04:01:27.718Z,14.23
2019-05-06T04:03:58.217Z,11.03
2019-05-06T04:06:28.695Z,10.98
2019-05-06T04:08:59.872Z,14.40
2019-05-06T04:11:35.812Z,11.42
2019-05-06T04:14:04.651Z,13.87
2019-05-06T04:16:43.737Z,11.83
2019-05-06T04:19:15.072Z,10.30
2019-05-06T04:21:53.172Z,10.05
2019-05-06T04:24:27.124Z,15.10
2019-05-06T04:27:22.792Z,12.43
2019-05-06T04:29:54.567Z,10.67
2019-05-06T04:32:25.028Z,16.53
2019-05-06T04:34:55.532Z,14.73
2019-05-06T04:37:26.318Z,13.18
2019-05-06T04:39:56.878Z,10.50
2019-05-06T04:42:27.490Z,15.10
2019-05-06T04:44:58.068Z,12.95
2019-05-06T04:47:28.990Z,11.38
2019-05-06T04:49:59.859Z,10.30
2019-05-06T04:52:34.258Z,12.70
2019-05-06T04:55:04.072Z,13.80
2019-05-06T04:57:34.595Z,16.48
2019-05-06T05:00:07.743Z,13.43
2019-05-06T05:02:38.532Z,11.50
2019-05-06T05:05:09.097Z,15.57
2019-05-06T05:07:39.535Z,20.15
2019-05-06T05:10:14.564Z,13.10
2019-05-06T05:12:52.861Z,12.03
2019-05-06T05:15:27.597Z,23.87
2019-05-06T05:18:15.983Z,25.36
2019-05-06T05:20:46.942Z,20.50
2019-05-06T05:23:18.517Z,10.03
2019-05-06T05:25:49.015Z,12.63
2019-05-06T05:28:19.667Z,8.43
2019-05-06T05:30:52.090Z,8.38
2019-05-06T05:33:22.984Z,8.88
2019-05-06T05:35:53.491Z,14.60
2019-05-06T05:38:23.927Z,13.10
2019-05-06T05:40:54.649Z,16.60
2019-05-06T05:43:32.646Z,28.38
2019-05-06T05:46:03.665Z,26.10
2019-05-06T05:48:42.383Z,9.47
2019-05-06T05:51:13.003Z,11.48
2019-05-06T05:53:43.446Z,10.85
2019-05-06T05:56:14.296Z,16.45
2019-05-06T05:58:44.821Z,15.13
2019-05-06T06:01:15.240Z,13.50
2019-05-06T06:03:45.794Z,13.90
2019-05-06T06:06:16.306Z,15.50
2019-05-06T06:08:46.737Z,15.00
2019-05-06T06:11:22.942Z,12.00
2019-05-06T06:13:54.748Z,11.53
2019-05-06T06:16:39.274Z,13.55
2019-05-06T06:19:12.721Z,11.70
2019-05-06T06:21:45.150Z,10.95
2019-05-06T06:24:17.309Z,13.22
2019-05-06T06:26:48.057Z,17.30
2019-05-06T06:29:18.572Z,13.08
2019-05-06T06:32:06.868Z,13.15
2019-05-06T06:35:07.424Z,12.10
2019-05-06T06:37:42.792Z,16.55
2019-05-06T06:40:15.298Z,11.90
2019-05-06T06:42:47.369Z,13.53
2019-05-06T06:45:18.115Z,9.98
2019-05-06T06:47:49.206Z,9.78
2019-05-06T06:50:22.119Z,9.40
2019-05-06T06:52:52.885Z,8.25
2019-05-06T06:55:23.214Z,11.83
2019-05-06T06:57:57.758Z,7.95
2019-05-06T07:00:29.868Z,10.82
2019-05-06T07:03:04.973Z,11.80
2019-05-06T07:05:37.021Z,10.87
2019-05-06T07:08:07.764Z,7.72
2019-05-06T07:10:44.178Z,12.55
2019-05-06T07:13:16.554Z,10.80
2019-05-06T07:15:46.939Z,8.37
2019-05-06T07:18:19.626Z,9.48
2019-05-06T07:20:57.864Z,13.30
2019-05-06T07:23:36.074Z,10.20
2019-05-06T07:26:06.485Z,7.87
2019-05-06T07:28:36.845Z,7.72
2019-05-06T07:31:18.805Z,8.43
2019-05-06T07:33:39.352Z,6.87
2019-05-06T07:36:09.703Z,8.73
2019-05-06T07:38:43.655Z,7.90
2019-05-06T07:41:18.204Z,10.50
2019-05-06T07:46:29.982Z,8.65
2019-05-06T07:49:02.980Z,5.60
2019-05-06T07:51:33.202Z,6.58
2019-05-06T07:54:03.617Z,4.75
2019-05-06T07:56:34.014Z,6.72
2019-05-06T07:59:12.562Z,8.45
2019-05-06T08:01:44.288Z,5.33
2019-05-06T08:04:14.829Z,13.62
2019-05-06T08:06:45.424Z,7.37
2019-05-06T08:09:15.830Z,4.25
2019-05-06T08:11:46.191Z,7.03
2019-05-06T08:14:16.537Z,4.50
2019-05-06T08:16:55.464Z,5.73
2019-05-06T08:19:25.908Z,8.00
2019-05-06T08:22:03.631Z,8.53
2019-05-06T08:24:34.066Z,8.20
2019-05-06T08:27:04.464Z,7.45
2019-05-06T08:29:35.223Z,6.97
2019-05-06T08:32:06.258Z,9.85
2019-05-06T08:34:36.607Z,8.15
2019-05-06T08:37:12.126Z,8.68
2019-05-06T08:39:45.816Z,4.92
2019-05-06T08:42:14.841Z,6.77
2019-05-06T08:44:45.331Z,6.45
2019-05-06T08:47:15.709Z,5.30
2019-05-06T08:50:02.201Z,5.92
2019-05-06T08:52:52.149Z,7.92
2019-05-06T08:55:29.293Z,8.95
2019-05-06T08:57:59.649Z,6.60
2019-05-06T09:00:32.344Z,5.40
2019-05-06T09:03:04.282Z,7.17
2019-05-06T09:05:34.999Z,10.35
2019-05-06T09:08:05.342Z,6.40
2019-05-06T09:10:35.704Z,8.73
2019-05-06T09:13:06.061Z,7.53
2019-05-06T09:15:36.440Z,8.75
2019-05-06T09:18:06.886Z,4.53
2019-05-06T09:20:37.260Z,8.25
2019-05-06T09:23:07.643Z,7.00
2019-05-06T09:25:38.129Z,10.80
2019-05-06T09:28:12.994Z,7.45
2019-05-06T09:30:46.631Z,8.63
2019-05-06T09:33:18.868Z,5.37
2019-05-06T09:35:49.545Z,4.90
2019-05-06T09:38:19.999Z,4.47
2019-05-06T09:40:52.487Z,8.93
2019-05-06T09:43:22.643Z,8.55
2019-05-06T09:45:53.091Z,6.75
2019-05-06T09:48:42.474Z,6.87
2019-05-06T09:51:13.215Z,6.08
2019-05-06T09:54:03.779Z,4.17
2019-05-06T09:56:35.356Z,7.83
2019-05-06T09:59:05.958Z,5.15
2019-05-06T10:01:36.780Z,6.67
2019-05-06T10:04:07.283Z,4.84
2019-05-06T10:06:38.730Z,4.78
2019-05-06T10:09:15.705Z,4.57
2019-05-06T10:11:44.246Z,4.85
2019-05-06T10:14:14.717Z,6.40
2019-05-06T10:16:45.377Z,8.38
2019-05-06T10:19:16.021Z,6.30
2019-05-06T10:21:47.581Z,6.40
2019-05-06T10:24:17.930Z,5.78
2019-05-06T10:26:52.188Z,5.28
2019-05-06T10:29:23.729Z,3.73
2019-05-06T10:32:12.101Z,5.08
2019-05-06T10:34:43.513Z,4.63
2019-05-06T10:37:44.017Z,5.43
2019-05-06T10:40:48.683Z,5.85
2019-05-06T10:43:28.485Z,6.40
2019-05-06T10:46:01.098Z,6.65
2019-05-06T10:48:30.914Z,6.85
2019-05-06T10:51:03.543Z,7.33
2019-05-06T10:53:34.092Z,6.73
2019-05-06T10:56:12.658Z,7.00
2019-05-06T10:58:44.040Z,5.47
2019-05-06T11:01:18.800Z,4.80
2019-05-06T11:03:49.600Z,3.42
2019-05-06T11:06:22.115Z,5.95
2019-05-06T11:08:52.592Z,4.70
2019-05-06T11:11:32.742Z,4.10
2019-05-06T11:13:55.123Z,3.60
2019-05-06T11:16:25.491Z,5.28
2019-05-06T11:18:55.842Z,5.35
2019-05-06T11:21:26.197Z,3.95
2019-05-06T11:23:56.558Z,6.12
2019-05-06T11:26:26.928Z,2.67
2019-05-06T11:29:05.266Z,3.25
2019-05-06T11:31:37.460Z,4.93
2019-05-06T11:34:22.143Z,3.85
2019-05-06T11:39:25.805Z,6.45
2019-05-06T11:42:15.362Z,4.97
2019-05-06T11:44:31.974Z,3.47
2019-05-06T11:47:03.424Z,3.10
2019-05-06T11:49:34.540Z,6.34
2019-05-06T11:52:06.301Z,3.33
2019-05-06T11:54:36.834Z,4.67
2019-05-06T11:57:08.898Z,6.58
2019-05-06T11:59:39.253Z,7.42
2019-05-06T12:02:12.726Z,4.17
2019-05-06T12:04:43.566Z,3.47
2019-05-06T12:07:15.863Z,4.67
2019-05-06T12:09:46.928Z,2.85
2019-05-06T12:12:17.549Z,5.60
2019-05-06T12:14:47.935Z,5.30
2019-05-06T12:17:18.366Z,6.50
2019-05-06T12:19:48.792Z,5.17
2019-05-06T12:22:19.155Z,4.62
2019-05-06T12:24:49.765Z,5.13
2019-05-06T12:27:38.285Z,6.80
2019-05-06T12:30:12.243Z,3.58
2019-05-06T12:32:44.067Z,3.95
2019-05-06T12:35:14.726Z,4.87
2019-05-06T12:37:47.470Z,7.15
2019-05-06T12:40:18.678Z,4.55
2019-05-06T12:42:53.486Z,4.53
2019-05-06T12:45:25.609Z,7.08
2019-05-06T12:48:02.801Z,4.72
2019-05-06T12:50:33.205Z,5.73
2019-05-06T12:53:03.852Z,3.50
2019-05-06T12:55:34.455Z,5.83
2019-05-06T12:58:04.881Z,3.87
2019-05-06T13:00:37.457Z,5.15
2019-05-06T13:03:08.357Z,4.66
2019-05-06T13:05:38.719Z,3.70
2019-05-06T13:08:09.146Z,6.53
2019-05-06T13:10:39.585Z,3.95
2019-05-06T13:13:12.334Z,6.23
2019-05-06T13:15:43.502Z,10.50
2019-05-06T13:18:14.401Z,4.92
2019-05-06T13:20:49.614Z,7.78
2019-05-06T13:23:22.132Z,4.37
2019-05-06T13:25:52.751Z,4.73
2019-05-06T13:28:24.848Z,6.43
2019-05-06T13:30:55.256Z,5.95
2019-05-06T13:33:39.546Z,8.03
2019-05-06T13:36:10.184Z,3.80
2019-05-06T13:38:42.648Z,5.72
2019-05-06T13:41:13.061Z,7.05
2019-05-06T13:44:02.594Z,5.10
2019-05-06T13:46:34.727Z,4.97
2019-05-06T13:49:06.729Z,6.28
2019-05-06T13:51:44.649Z,4.58
2019-05-06T13:54:16.054Z,6.08
2019-05-06T13:56:48.934Z,4.03
2019-05-06T13:59:18.912Z,6.60
2019-05-06T14:02:07.092Z,6.67
2019-05-06T14:04:35.454Z,6.90
2019-05-06T14:07:07.415Z,5.42
2019-05-06T14:09:40.253Z,7.50
2019-05-06T14:12:10.242Z,4.95
2019-05-06T14:14:42.972Z,7.92
2019-05-06T14:17:13.052Z,5.85
2019-05-06T14:19:43.421Z,6.30
2019-05-06T14:22:13.784Z,4.67
2019-05-06T14:24:45.804Z,6.87
2019-05-06T14:27:17.955Z,9.20
2019-05-06T14:30:04.494Z,6.05
2019-05-06T14:32:34.182Z,4.62
2019-05-06T14:35:06.173Z,5.00
2019-05-06T14:37:36.783Z,5.25
2019-05-06T14:40:09.071Z,7.53
2019-05-06T14:42:39.717Z,4.26
2019-05-06T14:45:14.443Z,6.10
2019-05-06T14:47:43.288Z,6.97
2019-05-06T14:50:15.501Z,5.50
2019-05-06T14:52:45.856Z,4.70
2019-05-06T14:55:18.324Z,5.60
2019-05-06T14:57:48.631Z,4.80
2019-05-06T15:00:22.878Z,5.22
2019-05-06T15:02:53.431Z,7.50
2019-05-06T15:05:32.575Z,4.55
2019-05-06T15:08:04.228Z,7.92
2019-05-06T15:10:34.493Z,3.40
2019-05-06T15:13:05.776Z,8.93
2019-05-06T15:15:36.313Z,7.80
2019-05-06T15:18:06.595Z,5.80
2019-05-06T15:20:36.870Z,5.25
2019-05-06T15:23:07.497Z,4.27
2019-05-06T15:25:37.768Z,5.28
2019-05-06T15:28:08.355Z,5.75
2019-05-06T15:30:42.852Z,6.47
2019-05-06T15:33:14.542Z,6.62
2019-05-06T15:36:02.942Z,5.22
2019-05-06T15:38:33.291Z,7.35
2019-05-06T15:41:03.599Z,5.65
2019-05-06T15:43:33.891Z,6.13
2019-05-06T15:46:04.250Z,7.65
2019-05-06T15:48:34.538Z,5.28
2019-05-06T15:51:05.110Z,4.10
2019-05-06T15:53:36.669Z,7.65
2019-05-06T15:56:07.031Z,8.75
2019-05-06T15:58:37.949Z,7.35
2019-05-06T16:01:08.240Z,5.90
2019-05-06T16:03:38.530Z,6.33
2019-05-06T16:06:08.807Z,5.05
2019-05-06T16:08:39.092Z,5.97
2019-05-06T16:11:09.597Z,7.08
2019-05-06T16:13:42.129Z,7.67
2019-05-06T16:16:11.869Z,5.00
2019-05-06T16:18:42.416Z,8.43
2019-05-06T16:21:13.185Z,7.00
2019-05-06T16:23:45.102Z,6.53
2019-05-06T16:26:18.162Z,9.68
2019-05-06T16:28:48.459Z,7.92
2019-05-06T16:31:18.730Z,6.63
2019-05-06T16:33:49.016Z,5.00
2019-05-06T16:36:19.298Z,6.60
2019-05-06T16:38:49.631Z,7.58
2019-05-06T16:41:22.357Z,5.97
2019-05-06T16:43:52.455Z,6.40
2019-05-06T16:46:23.144Z,6.75
2019-05-06T16:48:53.507Z,5.83
2019-05-06T16:51:23.791Z,6.33
2019-05-06T16:53:54.066Z,8.05
2019-05-06T16:56:25.989Z,7.33
2019-05-06T16:59:03.031Z,7.65
2019-05-06T17:01:35.212Z,7.53
2019-05-06T17:04:19.604Z,8.88
2019-05-06T17:06:52.315Z,8.78
2019-05-06T17:09:27.201Z,7.83
2019-05-06T17:11:55.478Z,7.78
2019-05-06T17:14:25.747Z,7.87
2019-05-06T17:16:56.038Z,8.53
2019-05-06T17:19:26.325Z,6.47
2019-05-06T17:21:56.614Z,9.78
2019-05-06T17:24:26.951Z,9.08
2019-05-06T17:26:58.264Z,7.98
2019-05-06T17:29:42.917Z,9.35
2019-05-06T17:32:14.957Z,6.80
2019-05-06T17:34:46.880Z,9.70
2019-05-06T17:37:36.991Z,7.50
2019-05-06T17:40:13.680Z,8.50
2019-05-06T17:42:42.390Z,6.85
2019-05-06T17:45:32.201Z,6.55
2019-05-06T17:48:23.122Z,9.80
2019-05-06T17:51:09.539Z,6.85
2019-05-06T17:53:57.180Z,5.33
2019-05-06T17:56:27.525Z,7.30
2019-05-06T17:58:57.893Z,6.17
2019-05-06T18:01:36.392Z,6.08
2019-05-06T18:04:07.052Z,11.15
2019-05-06T18:06:37.326Z,7.14
2019-05-06T18:09:09.506Z,10.00
2019-05-06T18:11:42.255Z,6.12
2019-05-06T18:14:12.381Z,11.15
2019-05-06T18:16:42.879Z,6.55
2019-05-06T18:19:14.114Z,5.85
2019-05-06T18:21:44.645Z,8.60
2019-05-06T18:24:16.576Z,7.78
2019-05-06T18:26:46.941Z,10.05
2019-05-06T18:29:17.224Z,5.05
2019-05-06T18:31:48.608Z,5.50
2019-05-06T18:34:18.954Z,4.37
2019-05-06T18:36:49.484Z,7.65
2019-05-06T18:39:22.070Z,7.17
2019-05-06T18:41:53.215Z,5.67
2019-05-06T18:44:23.608Z,7.30
2019-05-06T18:46:53.896Z,5.53
2019-05-06T18:49:24.590Z,4.37
2019-05-06T18:51:54.965Z,7.15
2019-05-06T18:54:25.913Z,6.55
2019-05-06T18:56:56.355Z,4.58
2019-05-06T18:59:26.706Z,5.63
2019-05-06T19:01:57.053Z,7.17
2019-05-06T19:04:34.780Z,7.35
2019-05-06T19:07:12.830Z,6.58
2019-05-06T19:09:39.069Z,8.98
2019-05-06T19:12:09.343Z,5.50
2019-05-06T19:14:39.874Z,5.97
2019-05-06T19:17:10.160Z,10.32
2019-05-06T19:19:42.461Z,6.26
2019-05-06T19:22:14.024Z,5.92
2019-05-06T19:24:44.754Z,9.28
2019-05-06T19:27:15.129Z,6.80
2019-05-06T19:29:45.429Z,6.72
2019-05-06T19:32:15.699Z,6.70
2019-05-06T19:34:45.985Z,5.67
2019-05-06T19:37:16.683Z,7.90
2019-05-06T19:39:47.025Z,7.35
2019-05-06T19:42:17.585Z,8.75
2019-05-06T19:44:47.864Z,7.10
2019-05-06T19:47:18.137Z,8.93
2019-05-06T19:49:48.410Z,6.23
2019-05-06T19:52:18.690Z,7.42
2019-05-06T19:54:49.185Z,8.93
2019-05-06T19:57:19.693Z,5.10
2019-05-06T19:59:52.004Z,6.08
2019-05-06T20:02:25.179Z,6.40
2019-05-06T20:04:55.620Z,4.22
2019-05-06T20:07:33.336Z,5.25
2019-05-06T20:10:06.396Z,5.65
2019-05-06T20:12:43.389Z,4.17
2019-05-06T20:15:33.279Z,5.33
2019-05-06T20:18:05.060Z,5.60
2019-05-06T20:20:36.518Z,7.08
2019-05-06T20:23:07.126Z,4.60
2019-05-06T20:25:37.504Z,7.17
2019-05-06T20:28:07.742Z,4.72
2019-05-06T20:30:38.022Z,5.95
2019-05-06T20:33:08.284Z,5.33
2019-05-06T20:35:38.555Z,9.25
2019-05-06T20:38:08.824Z,7.55
2019-05-06T20:40:39.451Z,6.20
2019-05-06T20:43:19.277Z,7.83
2019-05-06T20:45:42.787Z,4.58
2019-05-06T20:48:13.206Z,5.95
2019-05-06T20:50:43.466Z,6.05
2019-05-06T20:53:13.729Z,6.70
2019-05-06T20:55:44.016Z,7.55
2019-05-06T20:58:14.301Z,6.23
2019-05-06T21:00:44.855Z,6.45
2019-05-06T21:03:15.379Z,5.20
2019-05-06T21:05:45.710Z,5.47
2019-05-06T21:08:15.982Z,5.47
2019-05-06T21:10:49.372Z,4.33
2019-05-06T21:13:29.549Z,4.47
2019-05-06T21:15:50.234Z,7.80
2019-05-06T21:18:22.755Z,5.83
2019-05-06T21:20:52.718Z,6.35
2019-05-06T21:23:22.975Z,7.67
2019-05-06T21:25:53.534Z,7.72
2019-05-06T21:28:24.058Z,5.55
2019-05-06T21:30:54.331Z,6.25
2019-05-06T21:33:24.598Z,6.33
2019-05-06T21:35:54.890Z,6.60
2019-05-06T21:38:25.150Z,5.28
2019-05-06T21:40:55.431Z,9.30
2019-05-06T21:43:25.690Z,8.13
2019-05-06T21:45:55.995Z,11.70
2019-05-06T21:48:26.271Z,8.35
2019-05-06T21:50:56.540Z,9.23
2019-05-06T21:53:26.831Z,8.95
2019-05-06T21:55:57.096Z,6.32
2019-05-06T21:58:27.389Z,11.73
2019-05-06T22:00:59.518Z,8.73
2019-05-06T22:03:32.699Z,7.03
2019-05-06T22:06:02.894Z,8.50
2019-05-06T22:08:33.188Z,7.40
2019-05-06T22:11:03.453Z,9.28
2019-05-06T22:13:33.723Z,8.33
2019-05-06T22:16:04.778Z,10.10
2019-05-06T22:18:35.259Z,7.33
2019-05-06T22:21:12.943Z,8.88
2019-05-06T22:23:56.057Z,9.68
2019-05-06T22:26:27.429Z,11.45
2019-05-06T22:28:57.772Z,18.40
2019-05-06T22:31:28.501Z,11.20
2019-05-06T22:33:59.316Z,10.03
2019-05-06T22:36:32.095Z,12.45
2019-05-06T22:39:02.485Z,11.00
2019-05-06T22:41:33.710Z,10.85
2019-05-06T22:44:13.310Z,13.22
2019-05-06T22:46:36.028Z,10.40
2019-05-06T22:49:06.293Z,13.98
2019-05-06T22:51:36.591Z,11.03
2019-05-06T22:54:07.660Z,12.70
2019-05-06T22:56:37.947Z,12.33
2019-05-06T22:59:08.232Z,12.35
2019-05-06T23:01:43.444Z,9.83
2019-05-06T23:04:15.359Z,14.13
2019-05-06T23:06:45.654Z,10.10
2019-05-06T23:09:15.942Z,12.93
2019-05-06T23:11:46.228Z,12.67
2019-05-06T23:14:27.928Z,14.10
2019-05-06T23:16:48.469Z,14.43
2019-05-06T23:19:18.743Z,9.63
2019-05-06T23:21:49.007Z,13.57
2019-05-06T23:24:19.289Z,11.10
2019-05-06T23:26:50.185Z,13.30
2019-05-06T23:29:22.371Z,12.90
2019-05-06T23:31:52.566Z,13.22
2019-05-06T23:34:23.235Z,10.08
2019-05-06T23:37:04.164Z,9.43
2019-05-06T23:40:33.085Z,8.55
2019-05-06T23:43:58.207Z,12.78
2019-05-06T23:47:23.269Z,11.83
2019-05-06T23:50:49.784Z,12.18
2019-05-06T23:54:14.775Z,16.02
2019-05-06T23:56:46.655Z,10.83
2019-05-06T23:59:18.571Z,10.18
